Aviation Digital Data Service (ADDS)

Output produced by METARs form (1743 UTC 27 May 2015)
found at http://www.aviationweather.gov/adds/metars/
 
METAR text: KSBP 271656Z 34006KT 10SM OVC018 16/09 A3004 RMK AO2 SLP171 T01560094 $
Conditions at: KSBP (SAN LUIS OBISPO , CA, US) observed 1656 UTC 27 May 2015
Temperature: 15.6°C (60°F)
Dewpoint: 9.4°C (49°F) [RH = 67%]
Pressure (altimeter): 30.04 inches Hg (1017.4 mb)
[Sea-level pressure: 1017.1 mb]
Winds: from the NNW (340 degrees) at 7 MPH (6 knots; 3.1 m/s)
Visibility: 10 or more miles (16+ km)
Ceiling: 1800 feet AGL
Clouds: overcast cloud deck at 1800 feet AGL
Weather:
SOME DATA ABOVE MAY BE INACCURATE!!!
"$" is an indication the sensor requires maintenance

METAR text: KSBP 271604Z VRB05KT 10SM OVC015 14/09 A3004 RMK AO2 T01390094 $
Conditions at: KSBP (SAN LUIS OBISPO , CA, US) observed 1604 UTC 27 May 2015
Temperature: 13.9°C (57°F)
Dewpoint: 9.4°C (49°F) [RH = 74%]
Pressure (altimeter): 30.04 inches Hg (1017.4 mb)
Winds: variable direction winds at 6 MPH (5 knots; 2.6 m/s)
Visibility: 10 or more miles (16+ km)
Ceiling: 1500 feet AGL
Clouds: overcast cloud deck at 1500 feet AGL
Weather:
SOME DATA ABOVE MAY BE INACCURATE!!!
"$" is an indication the sensor requires maintenance

METAR text: KSBP 271556Z 26004KT 10SM OVC014 13/09 A3004 RMK AO2 SLP171 T01330094 $
Conditions at: KSBP (SAN LUIS OBISPO , CA, US) observed 1556 UTC 27 May 2015
Temperature: 13.3°C (56°F)
Dewpoint: 9.4°C (49°F) [RH = 77%]
Pressure (altimeter): 30.04 inches Hg (1017.4 mb)
[Sea-level pressure: 1017.1 mb]
Winds: from the W (260 degrees) at 5 MPH (4 knots; 2.1 m/s)
Visibility: 10 or more miles (16+ km)
Ceiling: 1400 feet AGL
Clouds: overcast cloud deck at 1400 feet AGL
Weather:
SOME DATA ABOVE MAY BE INACCURATE!!!
"$" is an indication the sensor requires maintenance

METAR text: KSBP 271456Z 36006KT 10SM OVC013 13/09 A3003 RMK AO2 SLP168 T01280094 53007 $
Conditions at: KSBP (SAN LUIS OBISPO , CA, US) observed 1456 UTC 27 May 2015
Temperature: 12.8°C (55°F)
Dewpoint: 9.4°C (49°F) [RH = 80%]
Pressure (altimeter): 30.03 inches Hg (1017.0 mb)
[Sea-level pressure: 1016.8 mb]
Winds: from the N (360 degrees) at 7 MPH (6 knots; 3.1 m/s)
Visibility: 10 or more miles (16+ km)
Ceiling: 1300 feet AGL
Clouds: overcast cloud deck at 1300 feet AGL
Weather:
SOME DATA ABOVE MAY BE INACCURATE!!!
"$" is an indication the sensor requires maintenance

METAR text: KSBP 271356Z 30010KT 10SM OVC014 12/09 A3003 RMK AO2 SLP168 T01220089 $
Conditions at: KSBP (SAN LUIS OBISPO , CA, US) observed 1356 UTC 27 May 2015
Temperature: 12.2°C (54°F)
Dewpoint: 8.9°C (48°F) [RH = 80%]
Pressure (altimeter): 30.03 inches Hg (1017.0 mb)
[Sea-level pressure: 1016.8 mb]
Winds: from the WNW (300 degrees) at 12 MPH (10 knots; 5.2 m/s)
Visibility: 10 or more miles (16+ km)
Ceiling: 1400 feet AGL
Clouds: overcast cloud deck at 1400 feet AGL
Weather:
SOME DATA ABOVE MAY BE INACCURATE!!!
"$" is an indication the sensor requires maintenance

METAR text: KSBP 271256Z 30007KT 10SM OVC013 12/09 A3001 RMK AO2 SLP161 T01220089 $
Conditions at: KSBP (SAN LUIS OBISPO , CA, US) observed 1256 UTC 27 May 2015
Temperature: 12.2°C (54°F)
Dewpoint: 8.9°C (48°F) [RH = 80%]
Pressure (altimeter): 30.01 inches Hg (1016.3 mb)
[Sea-level pressure: 1016.1 mb]
Winds: from the WNW (300 degrees) at 8 MPH (7 knots; 3.6 m/s)
Visibility: 10 or more miles (16+ km)
Ceiling: 1300 feet AGL
Clouds: overcast cloud deck at 1300 feet AGL
Weather:
SOME DATA ABOVE MAY BE INACCURATE!!!
"$" is an indication the sensor requires maintenance

METAR text: KSBP 271156Z AUTO 32007KT 10SM OVC014 12/09 A3001 RMK AO2 SLP161 T01220089 10133 20111 55003 $
Conditions at: KSBP (SAN LUIS OBISPO , CA, US) observed 1156 UTC 27 May 2015
Temperature: 12.2°C (54°F)
Dewpoint: 8.9°C (48°F) [RH = 80%]
Pressure (altimeter): 30.01 inches Hg (1016.3 mb)
[Sea-level pressure: 1016.1 mb]
Winds: from the NW (320 degrees) at 8 MPH (7 knots; 3.6 m/s)
Visibility: 10 or more miles (16+ km)
Ceiling: 1400 feet AGL
Clouds: overcast cloud deck at 1400 feet AGL
Weather:
SOME DATA ABOVE MAY BE INACCURATE!!!
"$" is an indication the sensor requires maintenance

METAR text: KSBP 271056Z AUTO 31006KT 10SM OVC014 12/09 A3000 RMK AO2 SLP159 T01220094 $
Conditions at: KSBP (SAN LUIS OBISPO , CA, US) observed 1056 UTC 27 May 2015
Temperature: 12.2°C (54°F)
Dewpoint: 9.4°C (49°F) [RH = 83%]
Pressure (altimeter): 30.00 inches Hg (1016.0 mb)
[Sea-level pressure: 1015.9 mb]
Winds: from the NW (310 degrees) at 7 MPH (6 knots; 3.1 m/s)
Visibility: 10 or more miles (16+ km)
Ceiling: 1400 feet AGL
Clouds: overcast cloud deck at 1400 feet AGL
Weather:
SOME DATA ABOVE MAY BE INACCURATE!!!
"$" is an indication the sensor requires maintenance

METAR text: KSBP 271008Z AUTO 31006KT 10SM OVC014 12/09 A3000 RMK AO2 T01220094 $
Conditions at: KSBP (SAN LUIS OBISPO , CA, US) observed 1008 UTC 27 May 2015
Temperature: 12.2°C (54°F)
Dewpoint: 9.4°C (49°F) [RH = 83%]
Pressure (altimeter): 30.00 inches Hg (1016.0 mb)
Winds: from the NW (310 degrees) at 7 MPH (6 knots; 3.1 m/s)
Visibility: 10 or more miles (16+ km)
Ceiling: 1400 feet AGL
Clouds: overcast cloud deck at 1400 feet AGL
Weather:
SOME DATA ABOVE MAY BE INACCURATE!!!
"$" is an indication the sensor requires maintenance

METAR text: KSBP 270956Z AUTO 31006KT 10SM OVC015 13/09 A3000 RMK AO2 SLP157 T01280094 $
Conditions at: KSBP (SAN LUIS OBISPO , CA, US) observed 0956 UTC 27 May 2015
Temperature: 12.8°C (55°F)
Dewpoint: 9.4°C (49°F) [RH = 80%]
Pressure (altimeter): 30.00 inches Hg (1016.0 mb)
[Sea-level pressure: 1015.7 mb]
Winds: from the NW (310 degrees) at 7 MPH (6 knots; 3.1 m/s)
Visibility: 10 or more miles (16+ km)
Ceiling: 1500 feet AGL
Clouds: overcast cloud deck at 1500 feet AGL
Weather:
SOME DATA ABOVE MAY BE INACCURATE!!!
"$" is an indication the sensor requires maintenance